Time;durP1;ratioP1;P1;durP2;ratioP2;P2;SDS_P1;SDS_P2;PMS_P1;PMS_P2;Temp;Humidity;BMP_temperature;BMP_pressure;BME280_temperature;BME280_humidity;BME280_pressure;Samples;Min_cycle;Max_cycle;Signal;HPM_P1;HPM_P2
2021/10/29 00:03:38;;;;;;;51.2;61.1;;;;;;;4;82.3;99340;;;;
2021/10/29 00:13:38;;;;;;;51.2;61.1;;;;;;;3.8;82.4;99330;;;;
2021/10/29 00:23:38;;;;;;;50.6;59.2;;;;;;;3.7;82;99340;;;;
2021/10/29 00:33:38;;;;;;;50.6;59.2;;;;;;;3.6;82.7;99340;;;;
2021/10/29 00:43:38;;;;;;;50.6;59.2;;;;;;;3.4;81.9;99330;;;;
2021/10/29 00:54:38;;;;;;;51.5;59.8;;;;;;;3.3;82.3;99320;;;;
2021/10/29 01:04:38;;;;;;;51.5;59.8;;;;;;;3.3;82.5;99310;;;;
2021/10/29 01:14:38;;;;;;;51.5;59.8;;;;;;;3.3;83.2;99300;;;;
2021/10/29 01:24:38;;;;;;;52;61.9;;;;;;;3.3;83;99290;;;;
2021/10/29 01:35:38;;;;;;;52;61.9;;;;;;;3.2;82.9;99280;;;;
2021/10/29 01:45:38;;;;;;;52;61.9;;;;;;;3.1;83.7;99260;;;;
2021/10/29 01:56:38;;;;;;;49.5;56.6;;;;;;;3.1;83.2;99260;;;;
2021/10/29 02:06:38;;;;;;;49.5;56.6;;;;;;;2.9;82.4;99250;;;;
2021/10/29 02:16:38;;;;;;;49.5;56.6;;;;;;;2.7;82.5;99240;;;;
2021/10/29 02:26:38;;;;;;;44.8;50.4;;;;;;;2.7;82.3;99240;;;;
2021/10/29 02:37:38;;;;;;;44.8;50.4;;;;;;;2.5;82;99240;;;;
2021/10/29 02:47:38;;;;;;;44.8;50.4;;;;;;;2.4;82.2;99230;;;;
2021/10/29 02:57:38;;;;;;;47.1;56.3;;;;;;;2.3;82.2;99230;;;;
2021/10/29 03:07:38;;;;;;;47.1;56.3;;;;;;;2.3;82.4;99230;;;;
2021/10/29 03:17:38;;;;;;;47.1;56.3;;;;;;;2.3;82.4;99220;;;;
2021/10/29 03:27:38;;;;;;;42.6;49.6;;;;;;;2.3;83.8;99220;;;;
2021/10/29 03:37:53;;;;;;;42.6;49.6;;;;;;;2.2;83.1;99220;;;;
2021/10/29 03:47:42;;;;;;;42.6;49.6;;;;;;;2.1;82.3;99220;;;;
2021/10/29 03:57:38;;;;;;;44.9;51.5;;;;;;;2;83;99210;;;;
2021/10/29 04:07:38;;;;;;;44.9;51.5;;;;;;;1.9;82.6;99210;;;;
2021/10/29 04:17:38;;;;;;;44.9;51.5;;;;;;;1.7;81.9;99210;;;;
2021/10/29 04:27:43;;;;;;;40.1;46.9;;;;;;;1.5;81.7;99200;;;;
2021/10/29 04:37:38;;;;;;;40.1;46.9;;;;;;;1.4;81.6;99210;;;;
2021/10/29 04:47:38;;;;;;;40.1;46.9;;;;;;;1.4;82.8;99200;;;;
2021/10/29 04:57:38;;;;;;;38;44.9;;;;;;;1.4;82.3;99200;;;;
2021/10/29 05:07:38;;;;;;;38;44.9;;;;;;;1.2;82.1;99200;;;;
2021/10/29 05:17:38;;;;;;;38;44.9;;;;;;;1.2;82;99190;;;;
2021/10/29 05:27:38;;;;;;;54.3;65.6;;;;;;;1.2;81.9;99200;;;;
2021/10/29 05:37:38;;;;;;;54.3;65.6;;;;;;;1.3;82.2;99200;;;;
2021/10/29 05:47:38;;;;;;;54.3;65.6;;;;;;;1.4;82.3;99200;;;;
2021/10/29 05:57:38;;;;;;;64.4;77.3;;;;;;;1.4;82.2;99200;;;;
2021/10/29 06:07:38;;;;;;;64.4;77.3;;;;;;;1.6;82.2;99210;;;;
2021/10/29 06:17:38;;;;;;;64.4;77.3;;;;;;;1.6;82.1;99220;;;;
2021/10/29 06:28:42;;;;;;;65;84.6;;;;;;;1.9;82.2;99220;;;;
2021/10/29 06:37:38;;;;;;;65;84.6;;;;;;;2;82.2;99220;;;;
2021/10/29 06:47:43;;;;;;;65;84.6;;;;;;;2.3;82;99240;;;;
2021/10/29 07:47:38;;;;;;;72.2;89.8;;;;;;;4.9;82.7;99240;;;;
2021/10/29 07:57:38;;;;;;;68.1;79.2;;;;;;;5.4;82.1;99250;;;;
2021/10/29 08:07:38;;;;;;;68.1;79.2;;;;;;;6.1;82;99250;;;;
2021/10/29 08:17:38;;;;;;;68.1;79.2;;;;;;;6.8;81.5;99240;;;;
2021/10/29 08:27:38;;;;;;;65.9;78.9;;;;;;;7.3;80.5;99240;;;;
2021/10/29 08:37:40;;;;;;;65.9;78.9;;;;;;;7.7;79.1;99240;;;;
2021/10/29 08:47:38;;;;;;;65.9;78.9;;;;;;;8.3;78.5;99240;;;;
2021/10/29 08:57:38;;;;;;;52;63.3;;;;;;;8.8;77.1;99240;;;;
2021/10/29 09:07:44;;;;;;;52;63.3;;;;;;;9.4;75.1;99230;;;;
2021/10/29 09:38:38;;;;;;;43;50.2;;;;;;;11.1;67.6;99220;;;;
2021/10/29 09:48:42;;;;;;;43;50.2;;;;;;;11.6;65.4;99220;;;;
2021/10/29 09:58:38;;;;;;;33.4;42.2;;;;;;;12.3;64.3;99220;;;;
2021/10/29 10:08:38;;;;;;;33.4;42.2;;;;;;;12.9;63.5;99210;;;;
2021/10/29 10:19:38;;;;;;;34.6;44.7;;;;;;;13.5;60.2;99200;;;;
2021/10/29 10:29:53;;;;;;;34.6;44.7;;;;;;;13.8;57.1;99200;;;;
2021/10/29 10:40:56;;;;;;;34.6;44.7;;;;;;;14.3;56;99190;;;;
2021/10/29 10:49:43;;;;;;;31.1;36.1;;;;;;;14.6;55.1;99180;;;;
2021/10/29 10:59:46;;;;;;;31.1;36.1;;;;;;;15;56.4;99180;;;;
2021/10/29 11:09:56;;;;;;;31.1;36.1;;;;;;;15.3;55.5;99180;;;;
2021/10/29 11:19:44;;;;;;;36.6;46.7;;;;;;;15.5;54.1;99160;;;;
2021/10/29 11:29:38;;;;;;;36.6;46.7;;;;;;;15.8;53;99150;;;;
2021/10/29 11:39:38;;;;;;;36.6;46.7;;;;;;;15.9;51.9;99140;;;;
2021/10/29 11:49:38;;;;;;;24.5;30.7;;;;;;;16.2;50.7;99130;;;;
2021/10/29 11:59:56;;;;;;;24.5;30.7;;;;;;;16.4;51;99110;;;;
2021/10/29 12:09:38;;;;;;;24.5;30.7;;;;;;;16.6;49.6;99110;;;;
2021/10/29 12:19:39;;;;;;;18.8;25;;;;;;;16.8;49;99100;;;;
2021/10/29 12:29:38;;;;;;;18.8;25;;;;;;;17.1;50.1;99100;;;;
2021/10/29 13:09:38;;;;;;;22.1;26.7;;;;;;;17.5;50.2;99070;;;;
2021/10/29 13:19:52;;;;;;;19.4;23.1;;;;;;;17.5;49.5;99060;;;;
2021/10/29 13:50:56;;;;;;;17.1;21.2;;;;;;;17.2;50.4;99030;;;;
2021/10/29 13:59:49;;;;;;;17.1;21.2;;;;;;;17;51.2;99030;;;;
2021/10/29 14:29:42;;;;;;;20.1;25.8;;;;;;;16;54;99010;;;;
2021/10/29 14:39:43;;;;;;;20.1;25.8;;;;;;;15.6;55.1;99020;;;;
2021/10/29 14:49:49;;;;;;;19.3;29.9;;;;;;;15.2;55.6;99000;;;;
2021/10/29 15:00:30;;;;;;;19.3;29.9;;;;;;;14.6;56.6;99000;;;;
2021/10/29 15:29:48;;;;;;;15.3;20.3;;;;;;;12.8;61.4;99000;;;;
2021/10/29 15:49:39;;;;;;;18.1;25.7;;;;;;;11.5;63.8;98990;;;;
2021/10/29 15:59:44;;;;;;;18.1;25.7;;;;;;;11;65.4;99000;;;;
2021/10/29 16:20:38;;;;;;;24.4;30.1;;;;;;;10;69.1;98990;;;;
2021/10/29 16:30:38;;;;;;;24.4;30.1;;;;;;;9.6;69.3;98990;;;;
2021/10/29 16:40:38;;;;;;;24.4;30.1;;;;;;;9.5;71.1;99000;;;;
2021/10/29 16:50:38;;;;;;;52.9;61.4;;;;;;;9.3;70.5;99000;;;;
2021/10/29 17:00:38;;;;;;;52.9;61.4;;;;;;;8.7;71.1;98990;;;;
2021/10/29 17:10:38;;;;;;;52.9;61.4;;;;;;;8.7;71.8;99000;;;;
2021/10/29 17:20:38;;;;;;;56.3;70.5;;;;;;;8.5;73;99000;;;;
2021/10/29 17:30:38;;;;;;;56.3;70.5;;;;;;;8.2;73.2;99020;;;;
2021/10/29 17:40:38;;;;;;;56.3;70.5;;;;;;;8.2;73.5;99010;;;;
2021/10/29 17:51:38;;;;;;;60.2;72.5;;;;;;;8.1;73.8;99000;;;;
2021/10/29 18:01:39;;;;;;;60.2;72.5;;;;;;;7.9;73;98990;;;;
2021/10/29 18:11:38;;;;;;;60.2;72.5;;;;;;;7.9;71.5;98990;;;;
2021/10/29 18:21:38;;;;;;;52.5;66.1;;;;;;;7.7;70.2;98990;;;;
2021/10/29 18:31:38;;;;;;;52.5;66.1;;;;;;;7.4;70;98980;;;;
2021/10/29 18:41:38;;;;;;;52.5;66.1;;;;;;;7.3;70.6;98990;;;;
2021/10/29 18:51:38;;;;;;;45.5;51.2;;;;;;;7;74.6;98990;;;;
2021/10/29 19:01:38;;;;;;;45.5;51.2;;;;;;;6.6;75;98990;;;;
2021/10/29 19:11:39;;;;;;;45.5;51.2;;;;;;;6.3;74.9;99010;;;;
2021/10/29 19:22:38;;;;;;;73;88.6;;;;;;;5.9;75.6;99020;;;;
2021/10/29 19:32:38;;;;;;;73;88.6;;;;;;;5.7;76.1;99020;;;;
2021/10/29 19:42:38;;;;;;;73;88.6;;;;;;;5.5;76.1;99020;;;;
2021/10/29 19:52:38;;;;;;;77.6;94.2;;;;;;;5.5;77.7;99030;;;;
2021/10/29 20:02:38;;;;;;;77.6;94.2;;;;;;;5.6;78.3;99020;;;;
2021/10/29 20:13:38;;;;;;;77.6;94.2;;;;;;;5.6;77.9;99020;;;;
2021/10/29 20:23:38;;;;;;;62.3;74.8;;;;;;;5.9;77;99020;;;;
2021/10/29 20:33:38;;;;;;;62.3;74.8;;;;;;;5.7;76.5;99010;;;;
2021/10/29 20:43:38;;;;;;;62.3;74.8;;;;;;;5.5;76.9;99020;;;;
2021/10/29 20:53:38;;;;;;;76;93.8;;;;;;;5.2;77.1;99030;;;;
2021/10/29 21:03:38;;;;;;;76;93.8;;;;;;;5;78.1;99030;;;;
2021/10/29 21:13:38;;;;;;;76;93.8;;;;;;;4.9;79.2;99030;;;;
2021/10/29 21:23:38;;;;;;;98.6;123.8;;;;;;;4.7;79.7;99040;;;;
2021/10/29 21:33:38;;;;;;;98.6;123.8;;;;;;;4.8;80.4;99020;;;;
2021/10/29 21:43:39;;;;;;;98.6;123.8;;;;;;;4.6;80.2;99040;;;;
2021/10/29 21:53:38;;;;;;;70.8;82.4;;;;;;;4.5;80.1;99040;;;;
2021/10/29 22:03:38;;;;;;;70.8;82.4;;;;;;;4.4;80.2;99040;;;;
2021/10/29 22:13:38;;;;;;;70.8;82.4;;;;;;;4.5;81;99030;;;;
2021/10/29 22:23:38;;;;;;;66.8;79;;;;;;;4.5;81.1;99030;;;;
2021/10/29 22:33:38;;;;;;;66.8;79;;;;;;;4.3;79.7;99030;;;;
2021/10/29 22:43:38;;;;;;;66.8;79;;;;;;;4.4;80.2;99020;;;;
2021/10/29 22:53:39;;;;;;;52.9;63.3;;;;;;;4.3;79.9;99020;;;;
2021/10/29 23:03:38;;;;;;;52.9;63.3;;;;;;;4.2;80.5;99030;;;;
2021/10/29 23:14:38;;;;;;;52.9;63.3;;;;;;;3.8;80.7;99030;;;;
2021/10/29 23:24:38;;;;;;;65.4;75.4;;;;;;;3.7;79.7;99030;;;;
2021/10/29 23:34:38;;;;;;;65.4;75.4;;;;;;;3.5;80.8;99030;;;;
2021/10/29 23:44:38;;;;;;;65.4;75.4;;;;;;;3.4;80.6;99020;;;;
2021/10/29 23:54:38;;;;;;;60.8;69.5;;;;;;;3.3;81.1;99000;;;;
